Time;durP1;ratioP1;P1;durP2;ratioP2;P2;SDS_P1;SDS_P2;PMS_P1;PMS_P2;Temp;Humidity;BMP_temperature;BMP_pressure;BME280_temperature;BME280_humidity;BME280_pressure;Samples;Min_cycle;Max_cycle;Signal;HPM_P1;HPM_P2
2022/05/14 00:00:34;;;;;;;6.57;4.03;;;12.00;99.90;;;;;;5032931;28;20444;-70
2022/05/14 00:03:01;;;;;;;6.40;3.07;;;11.90;99.90;;;;;;5032614;28;20449;-70
2022/05/14 00:05:28;;;;;;;6.80;3.30;;;11.90;99.90;;;;;;5032924;28;20442;-71
2022/05/14 00:07:56;;;;;;;6.33;3.10;;;11.80;99.90;;;;;;5032919;28;21035;-71
2022/05/14 00:10:25;;;;;;;4.40;3.03;;;11.80;99.90;;;;;;5033224;28;20445;-71
2022/05/14 00:13:03;;;;;;;7.37;3.40;;;11.80;99.90;;;;;;5021828;28;21064;-71
2022/05/14 00:15:31;;;;;;;4.43;3.47;;;11.70;99.90;;;;;;5012803;28;20458;-71
2022/05/14 00:17:58;;;;;;;10.97;4.40;;;11.70;99.90;;;;;;5016783;28;20468;-71
2022/05/14 00:20:25;;;;;;;6.53;3.13;;;11.70;99.90;;;;;;5033106;28;20465;-70
2022/05/14 00:22:52;;;;;;;5.30;3.53;;;11.60;99.90;;;;;;5030172;28;20469;-71
2022/05/14 00:25:21;;;;;;;8.03;4.07;;;11.60;99.90;;;;;;5012735;28;20549;-70
2022/05/14 00:27:48;;;;;;;6.53;3.63;;;11.60;99.90;;;;;;5028383;28;20453;-70
2022/05/14 00:30:17;;;;;;;7.07;3.40;;;11.60;99.90;;;;;;5031392;28;20488;-71
2022/05/14 00:32:44;;;;;;;6.17;3.20;;;11.60;99.90;;;;;;5032979;28;20468;-70
2022/05/14 00:35:11;;;;;;;8.37;3.20;;;11.50;99.90;;;;;;5031981;28;20997;-71
2022/05/14 00:37:38;;;;;;;6.30;3.27;;;11.50;99.90;;;;;;5016109;28;20454;-71
2022/05/14 00:40:09;;;;;;;10.37;4.10;;;11.50;99.90;;;;;;5014123;28;20515;-70
2022/05/14 00:42:37;;;;;;;8.63;4.20;;;11.40;99.90;;;;;;5013003;28;20524;-70
2022/05/14 00:45:07;;;;;;;5.20;3.63;;;11.30;99.90;;;;;;5024291;28;20537;-70
2022/05/14 00:47:37;;;;;;;6.33;3.43;;;11.30;99.90;;;;;;5028647;28;20544;-70
2022/05/14 00:50:06;;;;;;;7.90;3.60;;;11.30;99.90;;;;;;5027727;28;20450;-70
2022/05/14 00:52:33;;;;;;;6.33;3.50;;;11.30;99.90;;;;;;5011928;28;21056;-70
2022/05/14 00:55:03;;;;;;;9.53;3.90;;;11.30;99.90;;;;;;5034368;28;20533;-70
2022/05/14 00:57:38;;;;;;;7.23;3.30;;;11.20;99.90;;;;;;5027971;28;20458;-71
2022/05/14 01:00:09;;;;;;;5.87;3.53;;;11.20;99.90;;;;;;5032113;28;20453;-70
2022/05/14 01:02:36;;;;;;;8.80;3.80;;;11.20;99.90;;;;;;5016222;28;20516;-71
2022/05/14 01:05:03;;;;;;;7.10;3.13;;;11.20;99.90;;;;;;5011879;28;20950;-70
2022/05/14 01:07:31;;;;;;;6.10;3.00;;;11.20;99.90;;;;;;5027820;28;20453;-70
2022/05/14 01:10:01;;;;;;;6.40;3.47;;;11.10;99.90;;;;;;5032427;28;20461;-71
2022/05/14 01:12:29;;;;;;;4.47;3.17;;;11.10;99.90;;;;;;5031728;28;20527;-70
2022/05/14 01:15:07;;;;;;;7.97;3.20;;;11.10;99.90;;;;;;5031421;28;20484;-70
2022/05/14 01:17:34;;;;;;;5.07;3.63;;;11.10;99.90;;;;;;5023070;28;20504;-70
2022/05/14 01:20:01;;;;;;;3.10;2.80;;;11.10;99.90;;;;;;5012974;28;20880;-70
2022/05/14 01:22:42;;;;;;;8.67;3.50;;;11.10;99.90;;;;;;5028976;28;20473;-71
2022/05/14 01:28:01;;;;;;;8.00;3.97;;;11.10;99.90;;;;;;5031248;28;20503;-70
2022/05/14 01:30:29;;;;;;;5.60;3.70;;;11.00;99.90;;;;;;5031343;28;20476;-71
2022/05/14 01:33:05;;;;;;;8.53;3.60;;;11.00;99.90;;;;;;5031782;28;20469;-71
2022/05/14 01:35:32;;;;;;;5.43;3.50;;;10.90;99.90;;;;;;5017659;28;20585;-71
2022/05/14 01:37:59;;;;;;;8.30;3.40;;;10.90;99.90;;;;;;5031060;28;20519;-70
2022/05/14 01:40:26;;;;;;;5.67;3.63;;;10.90;99.90;;;;;;5030657;28;20507;-70
2022/05/14 01:42:52;;;;;;;7.80;3.90;;;10.80;99.90;;;;;;5031176;28;20981;-70
2022/05/14 01:45:20;;;;;;;7.40;3.50;;;10.80;99.90;;;;;;5036382;28;20452;-71
2022/05/14 01:47:47;;;;;;;4.27;3.73;;;10.80;99.90;;;;;;5033067;28;20484;-71
2022/05/14 01:50:14;;;;;;;6.50;3.43;;;10.80;99.90;;;;;;5026232;28;20951;-70
2022/05/14 01:52:40;;;;;;;4.13;3.30;;;10.80;99.90;;;;;;5011640;28;20470;-70
2022/05/14 01:55:08;;;;;;;3.83;3.40;;;10.80;99.90;;;;;;5014225;28;20473;-71
2022/05/14 01:57:34;;;;;;;9.83;4.60;;;10.70;99.90;;;;;;5014967;28;20504;-70
2022/05/14 02:00:04;;;;;;;10.40;4.33;;;10.70;99.90;;;;;;5017157;28;20484;-71
2022/05/14 02:02:32;;;;;;;8.20;4.17;;;10.60;99.90;;;;;;5015306;28;20497;-71
2022/05/14 02:04:59;;;;;;;8.60;3.93;;;10.50;99.90;;;;;;5011127;28;20458;-70
2022/05/14 02:07:26;;;;;;;5.20;3.17;;;10.40;99.90;;;;;;5020462;28;20912;-70
2022/05/14 02:09:52;;;;;;;6.90;3.60;;;10.40;99.90;;;;;;5011438;28;20524;-71
2022/05/14 02:12:19;;;;;;;8.40;4.33;;;10.30;99.90;;;;;;5016560;28;20554;-70
2022/05/14 02:14:46;;;;;;;9.20;4.10;;;10.30;99.90;;;;;;5022079;28;20490;-70
2022/05/14 02:17:13;;;;;;;8.80;3.70;;;10.30;99.90;;;;;;5018647;28;20450;-71
2022/05/14 02:19:41;;;;;;;4.07;3.43;;;10.30;99.90;;;;;;5011548;28;21018;-71
2022/05/14 02:22:08;;;;;;;5.43;3.50;;;10.30;99.90;;;;;;5023363;28;20523;-70
2022/05/14 02:24:35;;;;;;;7.70;4.10;;;10.30;99.90;;;;;;5014110;28;20943;-70
2022/05/14 02:27:02;;;;;;;11.13;4.43;;;10.20;99.90;;;;;;5022222;28;20449;-70
2022/05/14 02:29:50;;;;;;;6.50;4.00;;;10.20;99.90;;;;;;5016035;28;20874;-70
2022/05/14 02:32:16;;;;;;;5.97;3.67;;;10.10;99.90;;;;;;5011128;28;20501;-70
2022/05/14 02:34:44;;;;;;;9.33;4.40;;;10.10;99.90;;;;;;5025908;28;20477;-71
2022/05/14 02:37:11;;;;;;;5.27;4.17;;;10.10;99.90;;;;;;5026623;28;20450;-71
2022/05/14 02:39:38;;;;;;;8.00;3.93;;;10.10;99.90;;;;;;5011436;28;20454;-70
2022/05/14 02:42:05;;;;;;;11.80;4.37;;;10.00;99.90;;;;;;5011412;28;20474;-70
2022/05/14 02:44:31;;;;;;;6.07;3.97;;;10.00;99.90;;;;;;5017476;28;21015;-71
2022/05/14 02:46:58;;;;;;;4.63;3.90;;;10.00;99.90;;;;;;5020718;28;20450;-71
2022/05/14 02:49:24;;;;;;;9.37;4.30;;;10.00;99.90;;;;;;5026041;28;20457;-71
2022/05/14 02:51:53;;;;;;;5.80;4.30;;;9.90;99.90;;;;;;5031096;28;20512;-70
2022/05/14 02:54:19;;;;;;;6.83;4.17;;;9.90;99.90;;;;;;5033278;28;20903;-70
2022/05/14 02:56:46;;;;;;;6.43;3.90;;;9.80;99.90;;;;;;5022632;28;20527;-70
2022/05/14 02:59:12;;;;;;;4.70;4.17;;;9.80;99.90;;;;;;5034209;28;20449;-70
2022/05/14 03:01:47;;;;;;;6.73;4.20;;;9.80;99.90;;;;;;5020022;28;20914;-71
2022/05/14 03:04:14;;;;;;;10.17;4.07;;;9.80;99.90;;;;;;5014124;28;20516;-70
2022/05/14 03:06:41;;;;;;;8.43;4.30;;;9.80;99.90;;;;;;5021698;28;21171;-70
2022/05/14 03:09:09;;;;;;;5.10;3.90;;;9.70;99.90;;;;;;5033973;28;20466;-70
2022/05/14 03:11:35;;;;;;;6.67;3.90;;;9.70;99.90;;;;;;5048159;28;20479;-72
2022/05/14 03:14:02;;;;;;;10.50;4.77;;;9.80;99.90;;;;;;5049611;28;20509;-72
2022/05/14 03:16:29;;;;;;;8.33;4.80;;;9.80;99.90;;;;;;5019995;28;20453;-73
2022/05/14 03:18:55;;;;;;;7.73;4.07;;;9.80;99.90;;;;;;5026143;28;20458;-72
2022/05/14 03:21:23;;;;;;;8.30;4.33;;;9.80;99.90;;;;;;5014578;28;20466;-72
2022/05/14 03:23:50;;;;;;;4.83;4.33;;;9.80;99.90;;;;;;5013687;28;20450;-72
2022/05/14 03:26:18;;;;;;;7.77;4.27;;;9.80;99.90;;;;;;5024732;28;20635;-72
2022/05/14 03:28:45;;;;;;;8.67;5.20;;;9.80;99.90;;;;;;5017997;28;21027;-72
2022/05/14 03:31:13;;;;;;;5.63;4.53;;;9.90;99.90;;;;;;5017290;28;20534;-72
2022/05/14 03:33:39;;;;;;;9.10;4.07;;;9.90;99.90;;;;;;5026856;28;20503;-72
2022/05/14 03:36:08;;;;;;;12.20;4.67;;;9.90;99.90;;;;;;5031264;28;20564;-72
2022/05/14 03:38:35;;;;;;;5.57;4.20;;;9.80;99.90;;;;;;5014005;28;20831;-72
2022/05/14 03:41:02;;;;;;;8.17;5.20;;;9.70;99.90;;;;;;5015309;28;20525;-72
2022/05/14 03:43:31;;;;;;;10.43;4.20;;;9.50;99.90;;;;;;5032616;28;20450;-72
2022/05/14 03:45:57;;;;;;;6.47;4.40;;;9.40;99.90;;;;;;5032442;28;20548;-72
2022/05/14 03:48:24;;;;;;;7.97;4.70;;;9.30;99.90;;;;;;5019714;28;20504;-72
2022/05/14 03:50:51;;;;;;;8.40;4.83;;;9.30;99.90;;;;;;5044298;28;20957;-72
2022/05/14 03:53:18;;;;;;;11.10;4.93;;;9.30;99.90;;;;;;5025040;28;20880;-72
2022/05/14 03:55:45;;;;;;;9.10;5.60;;;9.40;99.90;;;;;;5033662;28;20489;-72
2022/05/14 03:58:11;;;;;;;5.50;4.40;;;9.40;99.90;;;;;;5032985;28;21019;-72
2022/05/14 04:00:40;;;;;;;4.87;4.37;;;9.50;99.90;;;;;;5033406;28;20461;-72
2022/05/14 04:03:06;;;;;;;6.07;4.73;;;9.50;99.90;;;;;;5025128;28;20458;-72
2022/05/14 04:05:33;;;;;;;11.33;4.63;;;9.50;99.90;;;;;;5032445;28;20499;-72
2022/05/14 04:07:59;;;;;;;7.90;4.33;;;9.60;99.90;;;;;;5033676;28;20453;-72
2022/05/14 04:10:27;;;;;;;7.27;5.60;;;9.60;99.90;;;;;;5013747;28;20467;-73
2022/05/14 04:12:53;;;;;;;14.63;5.10;;;9.60;99.90;;;;;;5013146;28;20478;-72
2022/05/14 04:15:23;;;;;;;5.50;4.50;;;9.60;99.90;;;;;;5012713;28;20552;-73
2022/05/14 04:17:51;;;;;;;10.77;5.23;;;9.60;99.90;;;;;;5013232;28;20450;-72
2022/05/14 04:20:18;;;;;;;13.10;5.23;;;9.60;99.90;;;;;;5033008;28;20511;-72
2022/05/14 04:22:45;;;;;;;7.40;5.00;;;9.50;99.90;;;;;;5048293;28;20529;-72
2022/05/14 04:25:12;;;;;;;7.80;5.10;;;9.50;99.90;;;;;;5024178;28;20503;-72
2022/05/14 04:27:41;;;;;;;5.53;5.03;;;9.40;99.90;;;;;;5033148;28;20465;-73
2022/05/14 04:30:10;;;;;;;8.77;5.70;;;9.40;99.90;;;;;;5014160;28;20458;-70
2022/05/14 04:32:37;;;;;;;6.20;5.00;;;9.40;99.90;;;;;;5016034;28;20481;-70
2022/05/14 04:35:06;;;;;;;6.07;4.70;;;9.40;99.90;;;;;;5033463;28;20485;-70
2022/05/14 04:37:33;;;;;;;10.80;5.40;;;9.40;99.90;;;;;;5029473;28;20449;-70
2022/05/14 04:40:00;;;;;;;7.13;4.63;;;9.50;99.90;;;;;;5030194;28;20519;-70
2022/05/14 04:42:27;;;;;;;10.03;5.00;;;9.50;99.90;;;;;;5012965;28;20847;-70
2022/05/14 04:44:53;;;;;;;8.20;4.97;;;9.60;99.90;;;;;;5012206;28;20501;-70
2022/05/14 04:47:20;;;;;;;14.13;4.70;;;9.70;99.90;;;;;;5017028;28;20449;-70
2022/05/14 04:49:50;;;;;;;8.57;5.00;;;9.80;99.90;;;;;;5032698;28;20499;-70
2022/05/14 04:52:18;;;;;;;6.53;5.33;;;9.80;99.90;;;;;;5016682;28;20470;-71
2022/05/14 04:54:45;;;;;;;7.23;4.80;;;9.90;99.90;;;;;;5011799;28;20490;-71
2022/05/14 04:57:12;;;;;;;9.67;5.10;;;10.00;99.90;;;;;;5013528;28;20474;-70
2022/05/14 04:59:38;;;;;;;5.87;4.10;;;10.10;99.90;;;;;;5027507;28;20525;-70
2022/05/14 05:04:50;;;;;;;11.03;5.17;;;10.20;99.90;;;;;;5023329;28;20437;-70
2022/05/14 05:07:18;;;;;;;7.73;5.30;;;10.30;99.90;;;;;;5030713;28;20453;-70
2022/05/14 05:09:45;;;;;;;8.63;5.23;;;10.50;99.90;;;;;;5031921;28;20472;-70
2022/05/14 05:12:12;;;;;;;7.27;4.70;;;10.60;99.90;;;;;;5031141;28;20494;-70
2022/05/14 05:14:38;;;;;;;8.00;5.03;;;10.70;99.90;;;;;;5030636;28;20453;-71
2022/05/14 05:17:05;;;;;;;5.67;5.07;;;10.90;99.90;;;;;;5034185;28;20507;-70
2022/05/14 05:19:32;;;;;;;5.77;4.83;;;11.00;99.90;;;;;;5012305;28;20454;-70
2022/05/14 05:21:58;;;;;;;12.23;5.80;;;11.20;99.90;;;;;;5018435;28;20527;-70
2022/05/14 05:24:26;;;;;;;7.53;5.57;;;11.30;99.90;;;;;;5031218;28;20446;-70
2022/05/14 05:26:53;;;;;;;5.80;4.47;;;11.50;99.90;;;;;;5030618;28;20449;-70
2022/05/14 05:29:20;;;;;;;8.90;5.70;;;11.60;99.90;;;;;;5031678;28;20464;-70
2022/05/14 05:31:46;;;;;;;10.87;5.60;;;11.70;99.90;;;;;;5030875;28;21051;-70
2022/05/14 05:34:13;;;;;;;11.43;5.70;;;11.80;99.90;;;;;;5030985;28;20457;-71
2022/05/14 05:36:40;;;;;;;10.27;5.73;;;11.90;99.90;;;;;;5030725;28;20484;-70
2022/05/14 05:39:06;;;;;;;6.77;5.93;;;12.10;99.90;;;;;;5031016;28;20503;-70
2022/05/14 05:41:34;;;;;;;7.83;5.07;;;12.30;99.90;;;;;;5031532;28;20478;-70
2022/05/14 05:44:01;;;;;;;9.97;5.10;;;12.40;99.90;;;;;;5018030;28;20450;-70
2022/05/14 05:46:28;;;;;;;11.97;5.50;;;12.50;99.90;;;;;;5018240;28;20505;-71
2022/05/14 05:48:54;;;;;;;7.47;4.83;;;12.60;99.90;;;;;;5011564;28;20962;-70
2022/05/14 05:51:21;;;;;;;6.60;4.70;;;12.70;99.90;;;;;;5019007;28;20481;-70
2022/05/14 05:59:27;;;;;;;5.50;3.87;;;13.30;99.90;;;;;;4994553;28;20567;-76
2022/05/14 06:01:53;;;;;;;4.60;4.20;;;13.80;99.90;;;;;;5030286;28;20527;-76
2022/05/14 06:04:20;;;;;;;4.40;4.00;;;14.30;99.90;;;;;;5022626;28;20476;-76
2022/05/14 06:06:47;;;;;;;8.93;4.40;;;14.80;99.90;;;;;;5019046;28;20446;-78
2022/05/14 06:09:17;;;;;;;10.17;4.10;;;15.20;99.90;;;;;;5024110;28;20497;-76
2022/05/14 06:11:44;;;;;;;7.57;3.70;;;15.50;99.90;;;;;;5020099;28;20531;-76
2022/05/14 06:14:11;;;;;;;8.20;4.23;;;15.70;99.90;;;;;;5030041;28;20449;-76
2022/05/14 06:16:39;;;;;;;6.10;4.50;;;16.00;99.90;;;;;;5013351;28;20540;-76
2022/05/14 06:19:07;;;;;;;8.30;4.13;;;16.20;99.90;;;;;;5011229;28;20868;-77
2022/05/14 06:21:34;;;;;;;8.70;4.30;;;16.20;99.90;;;;;;5018330;28;20511;-76
2022/05/14 06:24:01;;;;;;;11.70;4.60;;;16.10;99.90;;;;;;5030487;28;20487;-76
2022/05/14 06:26:27;;;;;;;9.90;4.50;;;16.00;99.90;;;;;;5027394;28;20948;-77
2022/05/14 06:28:54;;;;;;;9.90;4.30;;;15.90;99.90;;;;;;5018550;28;20884;-79
2022/05/14 06:31:21;;;;;;;7.10;4.53;;;16.00;99.90;;;;;;5027562;28;20481;-80
2022/05/14 06:33:49;;;;;;;7.20;4.87;;;16.00;99.90;;;;;;5035435;28;20456;-79
2022/05/14 06:36:16;;;;;;;8.53;4.73;;;16.10;99.90;;;;;;5024356;28;20528;-79
2022/05/14 06:38:43;;;;;;;11.70;5.13;;;16.10;99.90;;;;;;5034993;28;20453;-80
2022/05/14 06:41:12;;;;;;;7.83;4.67;;;16.10;99.90;;;;;;5023475;28;20896;-78
2022/05/14 06:43:39;;;;;;;8.00;4.57;;;16.20;99.90;;;;;;5015287;28;20504;-79
2022/05/14 06:46:06;;;;;;;11.50;5.50;;;16.30;99.90;;;;;;5017496;28;20457;-79
2022/05/14 06:48:33;;;;;;;6.57;4.67;;;16.20;99.90;;;;;;5015116;28;20536;-78
2022/05/14 06:51:05;;;;;;;7.70;4.67;;;16.20;99.90;;;;;;5025182;28;20568;-79
2022/05/14 06:53:33;;;;;;;10.40;5.20;;;16.40;99.90;;;;;;5034514;28;20851;-79
2022/05/14 06:56:00;;;;;;;9.27;4.63;;;16.80;99.90;;;;;;5033847;28;21477;-78
2022/05/14 06:58:32;;;;;;;9.80;4.47;;;17.10;99.90;;;;;;5034036;28;20453;-78
2022/05/14 07:00:59;;;;;;;14.07;5.50;;;17.10;99.90;;;;;;5025311;28;21036;-80
2022/05/14 07:08:57;;;;;;;9.30;4.93;;;17.30;99.90;;;;;;5014674;28;20539;-80
2022/05/14 07:11:23;;;;;;;7.67;4.23;;;17.60;99.90;;;;;;5023759;28;20481;-78
2022/05/14 07:13:51;;;;;;;7.50;3.97;;;17.90;99.90;;;;;;5022074;28;20450;-79
2022/05/14 07:16:18;;;;;;;4.57;3.73;;;18.20;99.90;;;;;;5034285;28;20487;-79
2022/05/14 07:18:45;;;;;;;10.60;4.30;;;18.20;99.90;;;;;;5033856;28;20433;-79
2022/05/14 07:21:13;;;;;;;10.30;4.53;;;18.10;99.90;;;;;;5033833;28;21009;-80
2022/05/14 07:23:39;;;;;;;6.23;4.03;;;18.10;99.90;;;;;;5019281;28;20729;-79
2022/05/14 07:26:08;;;;;;;13.23;4.00;;;18.00;99.90;;;;;;5015483;28;20450;-79
2022/05/14 07:28:36;;;;;;;10.57;4.43;;;18.10;99.90;;;;;;5034787;28;20843;-80
2022/05/14 07:31:03;;;;;;;12.87;4.60;;;18.20;99.90;;;;;;5033177;28;20851;-81
2022/05/14 07:33:31;;;;;;;9.20;4.80;;;18.10;99.90;;;;;;5032966;28;20456;-78
2022/05/14 07:36:05;;;;;;;9.23;4.10;;;18.20;99.90;;;;;;5041376;28;20463;-78
2022/05/14 07:38:36;;;;;;;15.90;4.43;;;18.10;99.90;;;;;;5033939;28;20436;-78
2022/05/14 07:41:03;;;;;;;10.50;4.40;;;18.30;99.90;;;;;;5028423;28;20460;-79
2022/05/14 07:43:31;;;;;;;19.67;4.67;;;18.40;99.90;;;;;;5014512;28;20706;-79
2022/05/14 07:46:02;;;;;;;6.77;4.07;;;18.50;99.90;;;;;;5016495;28;20428;-79
2022/05/14 07:48:32;;;;;;;8.17;4.40;;;18.70;99.90;;;;;;5020501;28;20424;-79
2022/05/14 07:51:00;;;;;;;5.30;3.60;;;19.00;99.90;;;;;;5035126;28;20497;-79
2022/05/14 07:53:30;;;;;;;11.43;4.40;;;19.20;99.90;;;;;;5028198;28;20432;-79
2022/05/14 07:55:58;;;;;;;7.00;4.07;;;19.30;99.90;;;;;;5034660;28;20495;-78
2022/05/14 07:58:25;;;;;;;7.07;4.00;;;19.50;99.90;;;;;;5030309;28;20450;-78
2022/05/14 08:00:51;;;;;;;9.23;4.00;;;19.50;99.90;;;;;;5021666;28;20544;-83
2022/05/14 08:03:18;;;;;;;10.63;3.63;;;19.50;99.90;;;;;;5032474;28;20436;-81
2022/05/14 08:05:45;;;;;;;8.37;3.83;;;19.70;99.90;;;;;;5034632;28;20491;-79
2022/05/14 08:08:12;;;;;;;17.37;4.60;;;19.60;99.90;;;;;;5035647;28;20496;-78
2022/05/14 08:10:38;;;;;;;12.43;3.73;;;19.40;99.90;;;;;;5032037;28;20420;-79
2022/05/14 08:13:06;;;;;;;9.97;4.10;;;19.40;99.90;;;;;;5026181;28;20439;-79
2022/05/14 08:15:33;;;;;;;5.83;3.70;;;19.20;99.90;;;;;;5019575;28;20495;-80
2022/05/14 08:18:00;;;;;;;10.53;3.57;;;19.30;99.90;;;;;;5022149;28;20428;-79
2022/05/14 08:20:26;;;;;;;10.23;3.60;;;19.50;99.90;;;;;;5016959;28;20458;-79
2022/05/14 08:25:37;;;;;;;9.47;4.07;;;19.80;99.90;;;;;;5014734;28;20940;-79
2022/05/14 08:28:06;;;;;;;19.03;4.37;;;20.10;99.90;;;;;;5017785;28;20435;-79
2022/05/14 08:30:34;;;;;;;10.33;3.80;;;20.10;99.90;;;;;;5014087;28;20425;-79
2022/05/14 08:33:02;;;;;;;10.77;3.60;;;20.00;99.90;;;;;;5020366;28;20513;-80
2022/05/14 08:35:29;;;;;;;9.43;3.87;;;20.30;99.90;;;;;;5017257;28;20468;-80
2022/05/14 08:37:57;;;;;;;6.40;4.00;;;20.70;99.90;;;;;;5018685;28;20887;-79
2022/05/14 08:40:28;;;;;;;5.73;3.47;;;20.90;99.90;;;;;;5022599;28;20817;-79
2022/05/14 08:42:57;;;;;;;11.87;3.20;;;21.00;99.90;;;;;;5034678;28;20478;-80
2022/05/14 08:45:27;;;;;;;6.90;3.90;;;21.30;99.90;;;;;;5016530;28;20965;-79
2022/05/14 08:47:57;;;;;;;12.67;3.67;;;21.50;99.90;;;;;;5032298;28;20457;-76
2022/05/14 08:50:27;;;;;;;12.83;3.90;;;21.80;99.90;;;;;;5032354;28;20453;-77
2022/05/14 08:53:00;;;;;;;23.57;14.10;;;21.80;99.90;;;;;;5011573;28;20907;-78
2022/05/14 08:55:32;;;;;;;7.10;4.37;;;21.80;99.90;;;;;;5012133;28;20454;-80
2022/05/14 08:58:02;;;;;;;7.27;3.17;;;21.90;99.90;;;;;;5014021;28;20457;-78
2022/05/14 09:00:30;;;;;;;10.17;4.03;;;22.20;99.90;;;;;;5029998;28;20468;-82
2022/05/14 09:02:57;;;;;;;8.27;3.50;;;22.30;99.90;;;;;;5023105;28;20477;-78
2022/05/14 09:05:26;;;;;;;7.50;3.63;;;22.50;99.90;;;;;;5029668;28;20524;-79
2022/05/14 09:07:53;;;;;;;8.33;3.53;;;22.60;99.90;;;;;;5034136;28;20450;-78
2022/05/14 09:10:24;;;;;;;7.30;3.50;;;22.50;99.90;;;;;;5033328;28;20530;-78
2022/05/14 09:12:53;;;;;;;7.93;3.23;;;22.30;99.90;;;;;;5018705;28;20482;-78
2022/05/14 09:15:23;;;;;;;10.03;3.40;;;22.40;99.90;;;;;;5034679;28;20458;-77
2022/05/14 09:18:03;;;;;;;5.87;2.77;;;22.60;99.90;;;;;;5014781;28;20482;-77
2022/05/14 09:20:30;;;;;;;5.53;2.23;;;22.80;99.90;;;;;;5014522;28;20450;-77
2022/05/14 09:22:58;;;;;;;6.27;2.90;;;23.00;99.90;;;;;;5018897;28;20528;-77
2022/05/14 09:25:29;;;;;;;9.23;3.13;;;23.20;99.90;;;;;;5031021;28;20560;-73
2022/05/14 09:27:58;;;;;;;6.97;3.57;;;22.90;99.90;;;;;;5026234;28;21169;-73
2022/05/14 09:30:30;;;;;;;7.57;3.10;;;22.60;99.90;;;;;;5012388;28;20458;-73
2022/05/14 09:32:58;;;;;;;7.03;3.00;;;22.30;99.90;;;;;;5010748;28;20986;-72
2022/05/14 09:35:26;;;;;;;8.60;3.30;;;22.30;99.90;;;;;;5010786;28;20458;-73
2022/05/14 09:37:57;;;;;;;10.00;2.90;;;22.20;99.90;;;;;;5029504;28;20542;-73
2022/05/14 09:40:27;;;;;;;9.40;2.93;;;22.30;99.90;;;;;;5017058;28;20514;-73
2022/05/14 09:42:56;;;;;;;12.77;3.00;;;22.20;99.90;;;;;;5022304;28;20473;-73
2022/05/14 09:45:34;;;;;;;2.40;1.70;;;22.40;99.90;;;;;;5028261;28;20453;-73
2022/05/14 09:48:14;;;;;;;5.07;1.97;;;22.90;99.90;;;;;;5028515;28;20438;-72
2022/05/14 09:50:42;;;;;;;4.83;1.70;;;23.00;99.90;;;;;;5025232;28;20477;-73
2022/05/14 09:53:09;;;;;;;2.97;1.80;;;22.90;99.90;;;;;;5015550;28;20454;-73
2022/05/14 09:56:01;;;;;;;5.18;1.55;;;22.90;99.90;;;;;;5025437;28;20441;-73
2022/05/14 09:58:37;;;;;;;3.63;1.33;;;23.00;99.90;;;;;;5018907;28;20904;-74
2022/05/14 10:01:09;;;;;;;2.50;1.50;;;22.90;99.90;;;;;;5018698;28;20218;-72
2022/05/14 10:03:50;;;;;;;2.90;1.33;;;23.30;99.90;;;;;;5024751;28;20457;-72
2022/05/14 10:06:27;;;;;;;6.20;1.80;;;23.70;99.90;;;;;;5014307;28;20512;-73
2022/05/14 10:09:09;;;;;;;3.20;1.70;;;24.00;99.90;;;;;;5033690;28;20510;-72
2022/05/14 10:11:38;;;;;;;4.03;1.70;;;24.30;99.90;;;;;;5024162;28;20489;-72
2022/05/14 10:14:20;;;;;;;4.63;1.80;;;23.80;99.90;;;;;;5028900;28;20453;-73
2022/05/14 10:16:58;;;;;;;5.50;1.77;;;23.80;99.70;;;;;;5023495;28;20487;-73
2022/05/14 10:19:52;;;;;;;3.13;1.70;;;23.70;99.30;;;;;;5031215;28;20536;-72
2022/05/14 10:22:25;;;;;;;2.70;2.00;;;23.60;99.60;;;;;;5031980;28;20987;-71
2022/05/14 10:27:59;;;;;;;1.70;1.57;;;23.30;99.10;;;;;;5014842;28;20518;-72
2022/05/14 10:30:32;;;;;;;4.30;2.10;;;23.20;99.50;;;;;;5012299;28;20511;-72
2022/05/14 10:33:02;;;;;;;4.50;1.60;;;23.10;99.90;;;;;;5028796;28;20481;-72
2022/05/14 10:35:36;;;;;;;4.00;1.60;;;23.30;99.80;;;;;;5020859;28;20458;-73
2022/05/14 10:38:07;;;;;;;4.40;1.43;;;23.40;99.60;;;;;;5027779;28;20501;-73
2022/05/14 10:40:36;;;;;;;4.23;1.87;;;23.50;98.90;;;;;;5012680;28;20884;-73
2022/05/14 10:43:20;;;;;;;4.77;2.00;;;23.60;99.90;;;;;;5015126;28;20807;-72
2022/05/14 10:45:49;;;;;;;7.80;1.80;;;23.70;99.10;;;;;;5018020;28;20883;-72
2022/05/14 10:48:25;;;;;;;5.63;1.63;;;23.90;99.50;;;;;;5027477;28;20544;-72
2022/05/14 10:50:53;;;;;;;3.80;2.00;;;24.30;99.60;;;;;;5025387;28;20453;-72
2022/05/14 10:53:21;;;;;;;6.13;1.80;;;24.00;98.10;;;;;;5029025;28;20449;-72
2022/05/14 10:55:56;;;;;;;4.03;1.60;;;24.10;99.00;;;;;;5030471;28;20507;-72
2022/05/14 10:58:36;;;;;;;8.65;1.40;;;24.40;98.20;;;;;;5020422;28;20511;-75
2022/05/14 11:01:06;;;;;;;3.00;1.50;;;24.30;97.90;;;;;;5020320;28;20474;-73
2022/05/14 11:03:36;;;;;;;5.25;1.73;;;23.90;98.10;;;;;;5015586;28;20479;-74
2022/05/14 11:06:13;;;;;;;3.70;1.60;;;23.60;99.00;;;;;;5029058;28;20452;-73
2022/05/14 11:08:43;;;;;;;4.17;1.73;;;23.40;98.70;;;;;;5028942;28;20449;-73
2022/05/14 11:11:15;;;;;;;3.93;1.80;;;23.50;99.20;;;;;;5026207;28;20474;-73
2022/05/14 11:13:54;;;;;;;8.30;1.70;;;23.80;99.20;;;;;;5022311;28;20512;-71
2022/05/14 11:16:21;;;;;;;4.40;1.93;;;24.00;98.60;;;;;;5026221;28;20503;-72
2022/05/14 11:18:50;;;;;;;4.37;1.60;;;23.90;98.70;;;;;;5027144;28;20461;-72
2022/05/14 11:21:19;;;;;;;5.70;1.70;;;24.30;98.30;;;;;;5021634;28;20531;-71
2022/05/14 11:23:54;;;;;;;2.17;1.40;;;24.40;96.70;;;;;;5033257;28;20456;-72
2022/05/14 11:26:21;;;;;;;3.20;1.50;;;24.30;95.90;;;;;;5030690;28;21007;-72
2022/05/14 11:29:00;;;;;;;2.07;1.40;;;24.70;95.80;;;;;;5027683;28;20864;-72
2022/05/14 11:31:30;;;;;;;4.73;1.43;;;25.30;95.70;;;;;;5024487;28;20469;-72
2022/05/14 11:34:00;;;;;;;4.97;1.90;;;25.80;94.90;;;;;;5031743;28;20453;-72
2022/05/14 11:36:30;;;;;;;4.40;1.57;;;26.20;94.10;;;;;;5028688;28;20442;-72
2022/05/14 11:39:23;;;;;;;6.70;2.00;;;26.40;93.30;;;;;;5021755;28;20460;-71
2022/05/14 11:41:52;;;;;;;2.73;1.60;;;26.40;95.40;;;;;;5014907;28;21063;-73
2022/05/14 11:44:36;;;;;;;4.67;1.57;;;26.70;92.30;;;;;;5030657;28;20480;-72
2022/05/14 11:47:07;;;;;;;3.50;1.60;;;26.80;90.60;;;;;;5031719;28;20853;-73
2022/05/14 11:49:41;;;;;;;4.80;1.43;;;27.10;91.50;;;;;;5018685;28;20746;-72
2022/05/14 11:52:14;;;;;;;5.43;1.73;;;27.50;90.00;;;;;;5030381;28;20513;-76
2022/05/14 11:54:47;;;;;;;4.37;1.23;;;28.00;88.50;;;;;;5031017;28;20457;-72
2022/05/14 11:57:18;;;;;;;4.30;1.47;;;28.00;86.80;;;;;;5017547;28;20540;-73
2022/05/14 11:59:54;;;;;;;4.18;1.20;;;28.30;86.80;;;;;;5034660;28;20505;-73
2022/05/14 12:02:25;;;;;;;4.50;1.77;;;28.50;83.40;;;;;;5021622;28;20657;-73
2022/05/14 12:04:59;;;;;;;3.17;1.50;;;28.60;83.00;;;;;;5013276;28;20450;-72
2022/05/14 12:07:47;;;;;;;2.83;1.50;;;28.60;84.20;;;;;;5025424;28;20495;-72
2022/05/14 12:10:24;;;;;;;5.53;1.70;;;29.10;83.20;;;;;;5019708;28;20458;-72
2022/05/14 12:12:59;;;;;;;2.27;1.17;;;29.30;79.20;;;;;;5019510;28;20540;-72
2022/05/14 12:15:26;;;;;;;4.00;1.30;;;29.20;78.70;;;;;;5015488;28;20730;-72
2022/05/14 12:17:56;;;;;;;2.40;1.27;;;29.40;77.70;;;;;;5032724;28;20476;-72
2022/05/14 12:20:25;;;;;;;5.13;1.50;;;29.40;78.70;;;;;;5022597;28;20461;-72
2022/05/14 12:22:56;;;;;;;7.50;1.63;;;29.40;80.30;;;;;;5030942;28;20476;-72
2022/05/14 12:25:35;;;;;;;4.97;1.50;;;29.50;77.80;;;;;;5030936;28;20453;-72
2022/05/14 12:28:02;;;;;;;4.07;1.40;;;29.30;77.20;;;;;;5030374;28;20503;-72
2022/05/14 12:33:14;;;;;;;4.30;1.47;;;29.20;77.00;;;;;;5029221;28;20464;-72
2022/05/14 12:35:43;;;;;;;3.77;1.40;;;29.40;79.60;;;;;;5029190;28;20465;-72
2022/05/14 12:38:13;;;;;;;1.90;1.43;;;29.80;79.00;;;;;;5031686;28;20492;-71
2022/05/14 12:40:41;;;;;;;9.67;1.90;;;29.40;73.00;;;;;;5027398;28;20541;-72
2022/05/14 12:43:13;;;;;;;3.30;1.70;;;29.60;76.50;;;;;;5014256;28;20451;-72
2022/05/14 12:45:43;;;;;;;9.37;1.60;;;28.80;71.10;;;;;;5016769;28;20453;-72
2022/05/14 12:48:11;;;;;;;2.20;1.50;;;28.20;71.60;;;;;;5032204;28;20449;-72
2022/05/14 12:50:41;;;;;;;6.05;1.80;;;28.30;75.90;;;;;;5029313;28;20860;-72
2022/05/14 12:53:11;;;;;;;6.97;1.50;;;28.70;70.90;;;;;;5030447;28;20199;-73
2022/05/14 12:55:42;;;;;;;7.50;1.70;;;28.80;73.10;;;;;;5032578;28;20897;-72
2022/05/14 12:58:09;;;;;;;6.70;1.63;;;29.20;73.30;;;;;;5031068;28;20476;-73
2022/05/14 13:00:38;;;;;;;3.30;1.60;;;29.60;72.70;;;;;;5026556;28;20480;-72
2022/05/14 13:03:12;;;;;;;7.40;1.67;;;29.70;73.40;;;;;;5035951;28;20449;-72
2022/05/14 13:05:44;;;;;;;2.43;1.33;;;29.70;71.30;;;;;;5051961;28;20456;-72
2022/05/14 13:08:16;;;;;;;2.43;1.50;;;29.70;75.00;;;;;;5024954;28;20946;-72
2022/05/14 13:10:48;;;;;;;4.30;1.50;;;29.50;72.30;;;;;;5031153;28;20458;-72
2022/05/14 13:13:16;;;;;;;8.73;1.60;;;29.60;71.00;;;;;;5020173;28;20462;-72
2022/05/14 13:15:45;;;;;;;6.93;1.47;;;29.70;72.20;;;;;;5019520;28;20457;-71
2022/05/14 13:18:14;;;;;;;2.10;1.47;;;29.70;73.60;;;;;;5026749;28;20854;-73
2022/05/14 13:20:42;;;;;;;6.80;1.73;;;29.70;73.30;;;;;;5031922;28;20449;-73